Time;durP1;ratioP1;P1;durP2;ratioP2;P2;SDS_P1;SDS_P2;PMS_P1;PMS_P2;Temp;Humidity;BMP_temperature;BMP_pressure;BME280_temperature;BME280_humidity;BME280_pressure;Samples;Min_cycle;Max_cycle;Signal;HPM_P1;HPM_P2
2022/04/27 00:01:51;;;;;;;13.07;5.28;;;11.10;59.20;;;;;;2374097;56;21035;-75
2022/04/27 00:04:19;;;;;;;9.07;4.78;;;11.10;58.90;;;;;;2373788;56;21107;-74
2022/04/27 00:06:46;;;;;;;11.85;5.87;;;11.20;58.80;;;;;;2374137;56;21047;-75
2022/04/27 00:09:14;;;;;;;10.30;5.45;;;11.10;58.90;;;;;;2373633;56;21102;-75
2022/04/27 00:11:41;;;;;;;9.65;5.70;;;11.10;58.90;;;;;;2374323;56;21051;-75
2022/04/27 00:14:09;;;;;;;8.65;5.12;;;11.10;58.80;;;;;;2374119;56;21106;-75
2022/04/27 00:16:36;;;;;;;11.45;5.47;;;11.10;58.80;;;;;;2374366;56;21592;-75
2022/04/27 00:19:03;;;;;;;12.73;5.78;;;11.10;58.90;;;;;;2373949;56;21684;-76
2022/04/27 00:21:31;;;;;;;9.15;5.20;;;11.10;59.70;;;;;;2626821;52;21036;-71
2022/04/27 00:23:59;;;;;;;15.25;6.72;;;11.00;59.20;;;;;;2373290;56;21110;-75
2022/04/27 00:26:26;;;;;;;8.20;5.53;;;11.00;59.20;;;;;;2372994;56;21035;-73
2022/04/27 00:28:53;;;;;;;11.57;5.00;;;10.90;59.20;;;;;;2628657;52;21147;-75
2022/04/27 00:38:05;;;;;;;6.72;5.05;;;10.90;59.40;;;;;;2375258;56;21079;-74
2022/04/27 00:40:32;;;;;;;7.70;5.00;;;10.90;59.40;;;;;;2372753;56;21134;-75
2022/04/27 00:42:59;;;;;;;12.73;5.57;;;10.80;59.60;;;;;;2373294;56;21557;-75
2022/04/27 00:45:28;;;;;;;11.35;5.70;;;10.80;59.80;;;;;;2627691;52;21593;-75
2022/04/27 00:47:55;;;;;;;8.93;5.40;;;10.80;59.70;;;;;;2375071;56;21673;-77
2022/04/27 00:50:22;;;;;;;11.30;5.90;;;10.80;59.80;;;;;;2375051;56;21169;-77
2022/04/27 00:52:51;;;;;;;12.95;6.07;;;10.80;59.90;;;;;;2372745;56;21144;-76
2022/04/27 00:55:19;;;;;;;9.93;6.05;;;10.70;60.70;;;;;;2372652;56;21042;-73
2022/04/27 00:57:47;;;;;;;14.02;6.45;;;10.70;60.10;;;;;;2372285;56;21090;-74
2022/04/27 01:00:15;;;;;;;8.82;5.70;;;10.70;60.30;;;;;;2372503;56;21102;-75
2022/04/27 01:02:43;;;;;;;11.07;5.82;;;10.70;60.80;;;;;;2626106;52;21067;-75
2022/04/27 01:05:11;;;;;;;12.77;5.87;;;10.70;60.10;;;;;;2373193;56;21086;-76
2022/04/27 01:07:40;;;;;;;15.70;6.20;;;10.70;60.20;;;;;;2626818;52;21107;-75
2022/04/27 01:10:10;;;;;;;8.00;5.50;;;10.70;60.30;;;;;;2373368;56;21106;-75
2022/04/27 01:12:37;;;;;;;11.57;6.30;;;10.70;60.20;;;;;;2374050;56;21114;-77
2022/04/27 01:17:45;;;;;;;13.15;5.75;;;10.60;60.50;;;;;;2322272;57;22189;-74
2022/04/27 01:20:12;;;;;;;9.10;5.25;;;10.60;60.60;;;;;;2319248;58;21060;-77
2022/04/27 01:22:40;;;;;;;10.65;5.40;;;10.60;60.60;;;;;;2318677;58;21068;-77
2022/04/27 01:25:09;;;;;;;12.88;6.82;;;10.60;60.60;;;;;;2317891;58;21060;-77
2022/04/27 01:27:42;;;;;;;12.23;5.87;;;10.50;60.60;;;;;;2317922;58;21119;-76
2022/04/27 01:30:11;;;;;;;12.07;6.53;;;10.50;60.70;;;;;;2319104;58;21053;-77
2022/04/27 01:32:38;;;;;;;11.48;6.95;;;10.50;60.40;;;;;;2318071;58;21143;-75
2022/04/27 01:35:07;;;;;;;11.30;6.03;;;10.50;60.20;;;;;;2318011;58;21108;-76
2022/04/27 01:40:20;;;;;;;14.90;6.62;;;10.50;60.40;;;;;;2319041;58;21083;-74
2022/04/27 01:42:48;;;;;;;14.50;7.80;;;10.40;60.50;;;;;;2318129;58;21590;-77
2022/04/27 01:45:15;;;;;;;12.60;7.75;;;10.30;60.90;;;;;;2318464;58;21068;-75
2022/04/27 01:47:42;;;;;;;13.52;7.22;;;10.30;61.30;;;;;;2318595;58;21119;-76
2022/04/27 01:50:10;;;;;;;13.52;7.20;;;10.20;61.20;;;;;;2318694;58;21119;-76
2022/04/27 01:55:23;;;;;;;14.60;7.57;;;10.20;61.30;;;;;;2318813;58;21012;-75
2022/04/27 01:57:51;;;;;;;11.98;7.53;;;10.10;61.30;;;;;;2318863;58;21052;-75
2022/04/27 02:00:18;;;;;;;10.77;7.03;;;10.10;61.80;;;;;;2560093;54;21056;-75
2022/04/27 02:02:45;;;;;;;13.93;7.55;;;10.10;62.10;;;;;;2317585;58;21637;-73
2022/04/27 02:05:13;;;;;;;11.75;6.57;;;10.00;62.40;;;;;;2316159;58;21139;-75
2022/04/27 02:07:40;;;;;;;10.38;7.07;;;10.00;62.40;;;;;;2317887;58;21068;-73
2022/04/27 02:10:08;;;;;;;13.23;6.95;;;10.00;62.20;;;;;;2318602;58;21052;-75
2022/04/27 02:12:35;;;;;;;9.10;6.70;;;10.10;62.20;;;;;;2318059;58;21048;-75
2022/04/27 02:15:03;;;;;;;10.55;6.90;;;10.10;62.10;;;;;;2317211;58;21131;-73
2022/04/27 02:17:30;;;;;;;14.13;7.40;;;10.10;62.10;;;;;;2313346;58;21111;-75
2022/04/27 02:19:58;;;;;;;13.68;8.02;;;10.10;62.00;;;;;;2553271;54;21143;-75
2022/04/27 02:22:25;;;;;;;13.05;7.60;;;10.10;62.10;;;;;;2312945;58;21060;-74
2022/04/27 02:24:53;;;;;;;13.18;7.95;;;10.10;62.50;;;;;;2551624;54;21140;-75
2022/04/27 02:27:20;;;;;;;11.88;7.18;;;10.00;62.00;;;;;;2311468;58;21574;-74
2022/04/27 02:29:47;;;;;;;14.05;8.05;;;10.10;62.20;;;;;;2551505;54;21053;-73
2022/04/27 02:32:15;;;;;;;15.88;7.78;;;10.10;62.30;;;;;;2312241;58;21068;-75
2022/04/27 02:34:42;;;;;;;14.63;7.55;;;10.00;62.20;;;;;;2312358;58;21069;-75
2022/04/27 02:37:10;;;;;;;12.55;8.00;;;10.10;62.30;;;;;;2311599;58;21132;-73
2022/04/27 02:39:37;;;;;;;14.95;8.32;;;10.00;62.40;;;;;;2312537;58;21208;-75
2022/04/27 02:42:06;;;;;;;14.77;8.00;;;10.00;63.40;;;;;;2310126;58;21048;-73
2022/04/27 02:44:33;;;;;;;17.10;9.13;;;9.90;62.60;;;;;;2312367;58;21110;-75
2022/04/27 02:47:00;;;;;;;14.43;7.70;;;9.90;62.70;;;;;;2311770;58;21072;-73
2022/04/27 02:52:13;;;;;;;18.02;8.93;;;9.90;62.70;;;;;;2312452;58;21018;-75
2022/04/27 02:54:41;;;;;;;13.10;8.40;;;9.90;62.70;;;;;;2312328;58;21150;-75
2022/04/27 02:57:08;;;;;;;18.37;8.43;;;9.80;63.40;;;;;;2551078;54;21056;-75
2022/04/27 02:59:35;;;;;;;13.10;7.75;;;9.80;62.50;;;;;;2310803;58;21068;-74
2022/04/27 03:02:03;;;;;;;13.20;8.00;;;9.80;62.40;;;;;;2311719;58;21040;-76
2022/04/27 03:04:30;;;;;;;12.05;7.20;;;9.80;62.60;;;;;;2551574;54;21112;-74
2022/04/27 03:06:57;;;;;;;13.70;7.80;;;9.80;62.60;;;;;;2311798;58;21069;-76
2022/04/27 03:09:25;;;;;;;10.02;7.32;;;9.80;62.40;;;;;;2311617;58;21044;-75
2022/04/27 03:11:53;;;;;;;16.30;8.38;;;9.80;62.20;;;;;;2312603;58;21052;-73
2022/04/27 03:14:20;;;;;;;12.95;7.72;;;9.70;62.20;;;;;;2310902;58;21056;-76
2022/04/27 03:16:47;;;;;;;13.10;8.18;;;9.70;62.10;;;;;;2311517;58;21053;-75
2022/04/27 03:19:15;;;;;;;17.52;8.00;;;9.70;62.20;;;;;;2551047;54;21473;-73
2022/04/27 03:21:42;;;;;;;11.30;7.85;;;9.60;62.40;;;;;;2312112;58;21036;-75
2022/04/27 03:24:09;;;;;;;12.57;7.57;;;9.60;62.40;;;;;;2311807;58;21067;-75
2022/04/27 03:26:37;;;;;;;14.50;8.25;;;9.60;62.30;;;;;;2311522;58;21674;-74
2022/04/27 03:29:04;;;;;;;16.23;8.05;;;9.60;62.50;;;;;;2312787;58;21535;-76
2022/04/27 03:31:32;;;;;;;24.75;9.25;;;9.50;62.70;;;;;;2309461;58;21124;-75
2022/04/27 03:33:59;;;;;;;14.05;8.40;;;9.50;62.80;;;;;;2310152;58;21670;-72
2022/04/27 03:36:28;;;;;;;15.85;8.50;;;9.50;62.90;;;;;;2550769;54;21064;-75
2022/04/27 03:38:55;;;;;;;12.00;8.18;;;9.40;63.10;;;;;;2311054;58;21535;-72
2022/04/27 03:41:22;;;;;;;15.95;7.95;;;9.50;63.20;;;;;;2551799;54;21065;-74
2022/04/27 03:43:50;;;;;;;14.75;8.13;;;9.40;63.30;;;;;;2310978;58;21052;-76
2022/04/27 03:46:19;;;;;;;14.82;7.80;;;9.40;63.50;;;;;;2311646;58;21044;-75
2022/04/27 03:48:48;;;;;;;14.77;8.45;;;9.40;63.60;;;;;;2311772;58;21070;-75
2022/04/27 03:51:15;;;;;;;17.42;8.98;;;9.40;63.60;;;;;;2311576;58;21076;-75
2022/04/27 03:53:42;;;;;;;16.40;7.72;;;9.30;63.60;;;;;;2311324;58;21136;-75
2022/04/27 03:56:09;;;;;;;13.73;7.90;;;9.30;63.80;;;;;;2312188;58;21052;-75
2022/04/27 03:58:37;;;;;;;15.43;8.88;;;9.40;64.10;;;;;;2311363;58;21144;-73
2022/04/27 04:01:04;;;;;;;12.70;7.20;;;9.40;64.00;;;;;;2311506;58;21068;-75
2022/04/27 04:03:31;;;;;;;18.98;11.35;;;9.40;64.10;;;;;;2551302;54;21343;-74
2022/04/27 04:05:59;;;;;;;11.30;7.18;;;9.30;64.20;;;;;;2312220;58;21124;-75
2022/04/27 04:08:26;;;;;;;20.48;8.25;;;9.20;64.40;;;;;;2312088;58;21127;-75
2022/04/27 04:10:54;;;;;;;13.95;7.37;;;9.20;64.60;;;;;;2551494;54;21725;-73
2022/04/27 04:13:22;;;;;;;12.60;7.47;;;9.20;64.60;;;;;;2312089;58;21064;-76
2022/04/27 04:15:49;;;;;;;13.02;7.65;;;9.20;64.80;;;;;;2311530;58;21072;-75
2022/04/27 04:18:17;;;;;;;12.73;7.35;;;9.20;64.80;;;;;;2311297;58;21076;-76
2022/04/27 04:20:44;;;;;;;13.95;8.07;;;9.20;64.90;;;;;;2311891;58;21096;-74
2022/04/27 04:23:11;;;;;;;13.68;7.25;;;9.20;65.10;;;;;;2550630;54;21028;-75
2022/04/27 04:28:30;;;;;;;15.45;8.07;;;9.20;65.10;;;;;;2309543;58;21358;-71
2022/04/27 04:30:58;;;;;;;16.45;8.07;;;9.20;64.90;;;;;;2310754;58;21056;-75
2022/04/27 04:33:25;;;;;;;13.90;6.80;;;9.20;65.10;;;;;;2311328;58;21504;-74
2022/04/27 04:35:52;;;;;;;10.85;6.57;;;9.10;65.40;;;;;;2318780;54;21056;-73
2022/04/27 04:38:20;;;;;;;15.20;7.00;;;9.10;65.40;;;;;;2329285;57;21107;-73
2022/04/27 04:40:47;;;;;;;14.80;8.00;;;9.10;65.50;;;;;;2329273;57;21653;-74
2022/04/27 04:43:15;;;;;;;13.18;7.72;;;9.10;65.60;;;;;;2328594;57;21095;-74
2022/04/27 04:45:43;;;;;;;14.32;6.93;;;9.10;65.80;;;;;;2328339;57;21059;-74
2022/04/27 04:48:10;;;;;;;12.50;6.70;;;9.10;66.00;;;;;;2327450;57;21640;-74
2022/04/27 04:50:37;;;;;;;13.02;6.65;;;9.20;66.00;;;;;;2329443;57;21032;-73
2022/04/27 04:53:05;;;;;;;15.23;7.90;;;9.30;65.90;;;;;;2329662;57;21060;-73
2022/04/27 04:55:33;;;;;;;13.30;7.18;;;9.30;65.90;;;;;;2328623;57;21052;-74
2022/04/27 04:58:00;;;;;;;12.37;7.65;;;9.30;66.00;;;;;;2329516;57;21079;-73
2022/04/27 05:00:28;;;;;;;14.40;7.60;;;9.30;66.10;;;;;;2328654;57;21493;-73
2022/04/27 05:02:55;;;;;;;14.13;7.37;;;9.40;66.10;;;;;;2328948;57;21565;-75
2022/04/27 05:05:22;;;;;;;12.80;7.68;;;9.40;65.90;;;;;;2326135;57;21044;-74
2022/04/27 05:07:50;;;;;;;15.30;7.68;;;9.50;65.80;;;;;;2328670;57;21583;-75
2022/04/27 05:10:17;;;;;;;19.83;8.85;;;9.50;65.50;;;;;;2328690;57;21547;-74
2022/04/27 05:12:44;;;;;;;19.60;8.38;;;9.50;65.80;;;;;;2328154;57;21522;-74
2022/04/27 05:15:13;;;;;;;11.75;7.40;;;9.50;65.70;;;;;;2327431;57;21068;-75
2022/04/27 05:17:40;;;;;;;16.65;7.35;;;9.40;65.70;;;;;;2571733;54;21040;-75
2022/04/27 05:22:43;;;;;;;11.93;7.30;;;9.50;65.70;;;;;;2355503;57;22055;-72
2022/04/27 05:25:11;;;;;;;13.18;6.95;;;9.50;65.70;;;;;;2594372;52;21192;-74
2022/04/27 05:27:38;;;;;;;16.10;6.30;;;9.50;65.80;;;;;;2368551;56;21055;-74
2022/04/27 05:32:55;;;;;;;11.93;7.40;;;9.60;65.70;;;;;;2373801;56;21574;-73
2022/04/27 05:35:22;;;;;;;13.10;7.43;;;9.60;65.20;;;;;;2374311;56;21123;-73
2022/04/27 05:37:49;;;;;;;13.52;7.57;;;9.70;65.10;;;;;;2372757;56;21537;-73
2022/04/27 05:40:20;;;;;;;15.70;7.62;;;9.70;64.70;;;;;;2374787;56;21110;-73
2022/04/27 05:42:48;;;;;;;11.57;7.12;;;9.60;65.00;;;;;;2375172;56;22171;-73
2022/04/27 05:45:16;;;;;;;18.05;9.50;;;9.60;65.20;;;;;;2628429;52;21127;-75
2022/04/27 05:47:43;;;;;;;22.40;8.80;;;9.60;65.30;;;;;;2628418;52;21095;-73
2022/04/27 05:50:11;;;;;;;16.52;8.23;;;9.60;65.10;;;;;;2375003;56;21110;-73
2022/04/27 05:52:49;;;;;;;17.42;7.10;;;9.60;65.30;;;;;;2375090;56;21121;-74
2022/04/27 05:55:17;;;;;;;12.02;6.72;;;9.60;65.60;;;;;;2374153;56;21118;-73
2022/04/27 05:57:44;;;;;;;16.95;9.38;;;9.60;65.20;;;;;;2374069;56;21043;-72
2022/04/27 06:00:13;;;;;;;19.67;9.20;;;9.60;65.50;;;;;;2374005;56;21154;-72
2022/04/27 06:02:40;;;;;;;12.95;7.35;;;9.60;65.70;;;;;;2373606;56;21628;-72
2022/04/27 06:05:09;;;;;;;14.90;8.65;;;9.50;66.00;;;;;;2373840;56;21031;-72
2022/04/27 06:07:37;;;;;;;16.95;8.68;;;9.50;66.50;;;;;;2374243;56;21031;-72
2022/04/27 06:12:47;;;;;;;14.65;7.90;;;9.50;67.00;;;;;;2355398;57;22074;-72
2022/04/27 06:15:15;;;;;;;16.35;8.40;;;9.50;67.50;;;;;;2593581;53;21129;-74
2022/04/27 06:17:43;;;;;;;14.85;7.15;;;9.50;67.50;;;;;;2368979;56;21088;-74
2022/04/27 06:20:12;;;;;;;11.60;6.95;;;9.60;67.70;;;;;;2374338;56;21103;-74
2022/04/27 06:22:39;;;;;;;12.80;7.30;;;9.70;67.00;;;;;;2627636;52;21114;-76
2022/04/27 06:25:08;;;;;;;16.55;6.62;;;9.80;66.90;;;;;;2373840;56;21056;-75
2022/04/27 06:27:36;;;;;;;12.88;7.10;;;9.80;67.40;;;;;;2373139;56;21058;-76
2022/04/27 06:30:04;;;;;;;13.27;6.85;;;9.90;67.50;;;;;;2627305;52;21031;-74
2022/04/27 06:32:32;;;;;;;11.65;7.12;;;9.90;67.50;;;;;;2627550;52;21105;-73
2022/04/27 06:35:00;;;;;;;18.73;8.48;;;10.00;67.30;;;;;;2374325;56;21654;-76
2022/04/27 06:37:27;;;;;;;11.38;6.37;;;10.00;67.00;;;;;;2373308;56;21043;-74
2022/04/27 06:39:55;;;;;;;17.12;6.72;;;10.00;67.20;;;;;;2627722;52;21057;-75
2022/04/27 06:42:22;;;;;;;10.02;6.05;;;10.10;67.20;;;;;;2373605;56;21043;-74
2022/04/27 06:44:49;;;;;;;10.35;6.47;;;10.20;67.20;;;;;;2374382;56;21110;-75
2022/04/27 06:47:17;;;;;;;8.40;5.78;;;10.30;67.00;;;;;;2373190;56;21035;-74
2022/04/27 06:49:44;;;;;;;11.70;5.47;;;10.30;67.10;;;;;;2374025;56;21129;-74
2022/04/27 06:52:11;;;;;;;9.05;5.07;;;10.50;66.70;;;;;;2373808;56;21145;-77
2022/04/27 06:54:39;;;;;;;15.77;5.78;;;10.50;66.70;;;;;;2373679;56;21035;-75
2022/04/27 06:57:06;;;;;;;21.20;7.65;;;10.60;66.40;;;;;;2373775;56;21185;-75
2022/04/27 06:59:33;;;;;;;11.10;6.53;;;10.70;66.20;;;;;;2628086;52;21086;-74
2022/04/27 07:02:01;;;;;;;11.60;5.72;;;10.70;66.20;;;;;;2627999;52;21051;-74
2022/04/27 07:04:31;;;;;;;13.82;6.55;;;10.90;66.30;;;;;;2374885;56;21131;-76
2022/04/27 07:06:58;;;;;;;8.45;5.75;;;10.90;65.80;;;;;;2372986;56;21123;-77
2022/04/27 07:09:26;;;;;;;8.23;4.87;;;11.00;65.40;;;;;;2374300;56;21031;-74
2022/04/27 07:11:53;;;;;;;8.50;5.57;;;11.10;65.30;;;;;;2375009;56;21063;-74
2022/04/27 07:14:21;;;;;;;13.32;5.25;;;11.20;65.30;;;;;;2374892;56;21676;-77
2022/04/27 07:16:48;;;;;;;12.63;4.85;;;11.30;65.00;;;;;;2374935;56;21031;-74
2022/04/27 07:19:15;;;;;;;13.27;4.97;;;11.30;64.40;;;;;;2375206;56;21102;-75
2022/04/27 07:21:42;;;;;;;12.45;5.15;;;11.40;64.30;;;;;;2374752;56;21091;-74
2022/04/27 07:24:10;;;;;;;8.05;4.45;;;11.50;63.80;;;;;;2625196;52;21043;-75
2022/04/27 07:26:38;;;;;;;12.43;4.75;;;11.60;63.40;;;;;;2372744;56;21564;-74
2022/04/27 07:29:05;;;;;;;12.32;5.18;;;11.70;63.30;;;;;;2625877;52;21039;-74
2022/04/27 07:31:32;;;;;;;23.38;5.10;;;11.80;63.60;;;;;;2371794;56;21070;-74
2022/04/27 07:33:59;;;;;;;13.30;5.28;;;11.90;63.40;;;;;;2371971;56;22076;-72
2022/04/27 07:36:27;;;;;;;12.82;5.22;;;11.90;62.70;;;;;;2372667;56;21054;-72
2022/04/27 07:38:54;;;;;;;8.60;4.93;;;12.00;62.20;;;;;;2373383;56;21117;-73
2022/04/27 07:41:21;;;;;;;10.00;4.90;;;12.10;62.00;;;;;;2372804;56;21401;-73
2022/04/27 07:43:49;;;;;;;11.12;4.87;;;12.20;61.80;;;;;;2626535;52;21054;-73
2022/04/27 07:46:16;;;;;;;8.88;4.82;;;12.30;61.70;;;;;;2372416;56;21095;-74
2022/04/27 07:48:43;;;;;;;11.85;4.87;;;12.30;61.60;;;;;;2373040;56;21703;-75
2022/04/27 07:51:11;;;;;;;9.85;5.30;;;12.30;61.20;;;;;;2372314;56;21059;-72
2022/04/27 07:53:38;;;;;;;14.43;6.10;;;12.40;60.80;;;;;;2372254;56;21566;-74
2022/04/27 07:56:06;;;;;;;8.88;4.82;;;12.40;60.70;;;;;;2372974;56;21122;-75
2022/04/27 07:58:34;;;;;;;9.90;5.62;;;12.40;60.50;;;;;;2372833;56;21114;-76
2022/04/27 08:01:02;;;;;;;11.55;5.12;;;12.40;60.20;;;;;;2373526;56;21114;-73
2022/04/27 08:03:30;;;;;;;15.65;5.55;;;12.60;60.50;;;;;;2373271;56;21043;-75
2022/04/27 08:05:57;;;;;;;13.40;5.57;;;12.60;59.60;;;;;;2373146;56;21167;-73
2022/04/27 08:08:25;;;;;;;15.38;6.05;;;12.70;58.90;;;;;;2373610;56;21130;-72
2022/04/27 08:10:52;;;;;;;11.02;4.75;;;12.70;59.00;;;;;;2373420;56;21058;-73
2022/04/27 08:13:19;;;;;;;12.40;6.57;;;12.80;59.10;;;;;;2373478;56;21601;-73
2022/04/27 08:15:46;;;;;;;11.07;5.28;;;12.80;59.00;;;;;;2627199;52;21063;-75
2022/04/27 08:18:13;;;;;;;11.25;4.93;;;12.90;58.80;;;;;;2374075;56;21613;-73
2022/04/27 08:23:29;;;;;;;14.10;4.97;;;12.90;58.40;;;;;;2374071;56;21059;-73
2022/04/27 08:26:00;;;;;;;11.85;5.62;;;12.90;58.00;;;;;;2372647;56;21173;-73
2022/04/27 08:28:28;;;;;;;9.10;4.30;;;12.90;58.10;;;;;;2374307;56;21529;-74
2022/04/27 08:30:56;;;;;;;12.13;4.47;;;12.90;58.10;;;;;;2373842;56;21098;-75
2022/04/27 08:33:23;;;;;;;9.75;4.95;;;12.90;57.70;;;;;;2374191;56;21174;-72
2022/04/27 08:35:51;;;;;;;9.82;5.15;;;12.90;57.80;;;;;;2373969;56;21035;-72
2022/04/27 08:38:18;;;;;;;9.68;4.22;;;12.90;58.00;;;;;;2374270;56;21051;-73
2022/04/27 08:40:47;;;;;;;12.63;3.92;;;12.90;57.60;;;;;;2374035;56;21113;-72
2022/04/27 08:43:14;;;;;;;9.70;4.32;;;12.90;57.40;;;;;;2372760;56;21123;-73
2022/04/27 08:45:45;;;;;;;8.60;4.30;;;12.90;57.50;;;;;;2626492;52;21031;-75
2022/04/27 08:48:14;;;;;;;12.90;3.58;;;12.90;57.40;;;;;;2373453;56;21059;-75
2022/04/27 08:50:41;;;;;;;8.90;3.85;;;13.00;57.00;;;;;;2626993;52;21047;-75
2022/04/27 08:53:09;;;;;;;12.93;4.70;;;13.00;57.20;;;;;;2374093;56;21127;-74
2022/04/27 08:55:39;;;;;;;12.18;4.30;;;13.00;57.10;;;;;;2622308;52;21480;-75
2022/04/27 08:58:10;;;;;;;12.68;4.50;;;13.10;57.10;;;;;;2370803;56;21709;-75
2022/04/27 09:00:39;;;;;;;7.95;3.53;;;13.10;57.20;;;;;;2373187;56;21181;-75
2022/04/27 09:06:12;;;;;;;10.35;3.87;;;13.20;57.10;;;;;;2349212;57;22566;-74
2022/04/27 09:08:41;;;;;;;7.37;3.78;;;13.30;56.90;;;;;;2346463;57;21124;-74
2022/04/27 09:11:17;;;;;;;10.95;4.45;;;13.30;57.10;;;;;;2347012;57;21038;-74
2022/04/27 09:13:48;;;;;;;8.02;4.32;;;13.30;56.50;;;;;;2346607;57;21568;-74
2022/04/27 09:16:18;;;;;;;9.30;4.12;;;13.40;56.30;;;;;;2345617;57;21073;-74
2022/04/27 09:21:58;;;;;;;8.93;4.57;;;13.30;56.00;;;;;;2346998;57;21037;-75
2022/04/27 09:24:25;;;;;;;8.45;4.43;;;13.30;56.50;;;;;;2346960;57;21046;-73
2022/04/27 09:27:16;;;;;;;11.27;4.40;;;13.30;56.90;;;;;;2345812;57;21362;-74
2022/04/27 09:29:43;;;;;;;8.20;4.45;;;13.40;57.10;;;;;;2345567;57;21033;-76
2022/04/27 09:32:16;;;;;;;8.75;4.80;;;13.40;56.60;;;;;;2594303;53;21021;-76
2022/04/27 09:34:45;;;;;;;8.73;3.97;;;13.50;56.40;;;;;;2346543;57;21049;-77
2022/04/27 09:37:17;;;;;;;11.55;4.43;;;13.50;56.20;;;;;;2593454;52;21034;-76
2022/04/27 09:39:45;;;;;;;8.80;4.40;;;13.50;56.10;;;;;;2594541;53;21117;-76
2022/04/27 09:42:14;;;;;;;11.43;4.68;;;13.60;56.50;;;;;;2347058;57;21117;-76
2022/04/27 09:44:42;;;;;;;7.15;3.85;;;13.60;55.60;;;;;;2346702;57;21152;-77
2022/04/27 09:47:10;;;;;;;11.77;4.05;;;13.70;55.30;;;;;;2346756;57;21097;-76
2022/04/27 09:49:42;;;;;;;8.00;4.12;;;13.80;54.60;;;;;;2344303;57;21034;-76
2022/04/27 09:52:12;;;;;;;7.37;3.87;;;13.90;55.10;;;;;;2346174;57;21034;-74
2022/04/27 09:54:44;;;;;;;8.50;4.30;;;13.90;54.40;;;;;;2347306;57;21121;-75
2022/04/27 09:57:16;;;;;;;8.30;3.90;;;14.00;54.00;;;;;;2347141;57;21049;-75
2022/04/27 09:59:45;;;;;;;10.80;3.87;;;14.00;53.90;;;;;;2347244;57;21112;-73
2022/04/27 10:02:21;;;;;;;7.95;4.20;;;14.10;53.70;;;;;;2347796;57;21081;-72
2022/04/27 10:04:50;;;;;;;5.95;3.47;;;14.20;53.80;;;;;;2347424;57;21054;-75
2022/04/27 10:07:22;;;;;;;7.18;4.00;;;14.20;53.80;;;;;;2345782;57;21049;-72
2022/04/27 10:09:50;;;;;;;8.15;4.47;;;14.30;53.80;;;;;;2347154;57;21037;-72
2022/04/27 10:12:17;;;;;;;9.75;4.22;;;14.40;53.70;;;;;;2347481;57;21029;-73
2022/04/27 10:14:45;;;;;;;7.68;4.47;;;14.50;53.40;;;;;;2347391;57;21038;-72
2022/04/27 10:17:13;;;;;;;10.00;4.82;;;14.60;53.00;;;;;;2346313;57;21591;-72
2022/04/27 10:19:45;;;;;;;9.15;4.03;;;14.70;52.60;;;;;;2593685;53;21058;-72
2022/04/27 10:22:26;;;;;;;8.18;4.15;;;14.80;52.40;;;;;;2593502;53;21098;-73
2022/04/27 10:24:55;;;;;;;7.30;3.90;;;14.90;52.20;;;;;;2345674;57;21038;-72
2022/04/27 10:27:23;;;;;;;4.97;3.95;;;15.00;52.50;;;;;;2593511;53;21018;-73
2022/04/27 10:29:52;;;;;;;9.48;4.40;;;15.10;52.00;;;;;;2346338;57;21126;-74
2022/04/27 10:32:35;;;;;;;6.85;3.70;;;15.20;51.60;;;;;;2345969;57;21050;-73
2022/04/27 10:35:18;;;;;;;7.03;3.95;;;15.30;51.40;;;;;;2592520;53;21117;-75
2022/04/27 10:37:47;;;;;;;8.27;4.15;;;15.30;51.00;;;;;;2590406;53;21061;-74
2022/04/27 10:43:24;;;;;;;8.05;4.50;;;15.30;50.50;;;;;;2354446;57;22082;-73
2022/04/27 10:48:48;;;;;;;7.93;5.00;;;15.50;50.80;;;;;;2333323;57;27797;-72
2022/04/27 10:51:15;;;;;;;6.43;4.07;;;15.80;48.30;;;;;;2346043;57;21551;-72
2022/04/27 10:53:44;;;;;;;7.80;4.20;;;16.00;49.00;;;;;;2346659;57;21054;-73
2022/04/27 10:56:23;;;;;;;7.12;3.55;;;16.10;48.70;;;;;;2352463;56;21114;-73
2022/04/27 10:58:50;;;;;;;5.40;3.17;;;16.30;49.00;;;;;;2374832;56;21114;-73
2022/04/27 11:01:19;;;;;;;9.48;3.70;;;16.40;49.10;;;;;;2374715;56;21037;-74
2022/04/27 11:03:56;;;;;;;8.60;4.07;;;16.60;49.30;;;;;;2374754;56;21122;-74
2022/04/27 11:06:24;;;;;;;8.85;4.20;;;16.70;47.90;;;;;;2373423;56;21063;-74
2022/04/27 11:09:08;;;;;;;6.82;3.75;;;16.70;47.00;;;;;;2374878;56;21585;-73
2022/04/27 11:11:51;;;;;;;5.80;4.03;;;16.80;46.80;;;;;;2374983;56;21103;-74
2022/04/27 11:14:21;;;;;;;8.60;3.92;;;16.80;46.20;;;;;;2375551;56;21102;-73
2022/04/27 11:16:49;;;;;;;6.35;4.12;;;16.90;45.90;;;;;;2374815;56;21047;-73
2022/04/27 11:19:17;;;;;;;8.25;4.05;;;17.00;46.00;;;;;;2375553;56;21110;-73
2022/04/27 11:21:46;;;;;;;7.10;3.67;;;17.00;46.60;;;;;;2373777;56;21111;-74
2022/04/27 11:24:15;;;;;;;6.75;4.43;;;17.10;46.70;;;;;;2375009;56;21134;-75
2022/04/27 11:26:46;;;;;;;8.80;3.87;;;17.00;45.40;;;;;;2374684;56;21059;-73
2022/04/27 11:29:16;;;;;;;7.43;4.43;;;17.10;45.90;;;;;;2375050;56;21046;-73
2022/04/27 11:31:43;;;;;;;6.75;3.75;;;17.10;45.60;;;;;;2375411;56;21118;-73
2022/04/27 11:34:24;;;;;;;5.47;3.20;;;17.10;45.80;;;;;;2375237;56;21087;-75
2022/04/27 11:36:53;;;;;;;8.13;4.28;;;17.10;46.10;;;;;;2627933;52;21091;-73
2022/04/27 11:39:22;;;;;;;8.10;4.50;;;17.10;46.10;;;;;;2375190;56;21055;-76
2022/04/27 11:41:58;;;;;;;8.52;4.87;;;17.20;45.70;;;;;;2628584;52;21047;-74
2022/04/27 11:44:27;;;;;;;8.73;5.05;;;17.10;45.10;;;;;;2375531;56;21118;-73
2022/04/27 11:46:55;;;;;;;6.47;5.05;;;17.10;45.10;;;;;;2374794;56;21090;-73
2022/04/27 11:49:23;;;;;;;11.18;5.37;;;17.00;45.40;;;;;;2375061;56;21086;-73
2022/04/27 11:51:51;;;;;;;6.28;4.15;;;17.00;45.90;;;;;;2374757;56;21508;-72
2022/04/27 11:54:29;;;;;;;7.68;4.10;;;17.10;45.50;;;;;;2374648;56;21027;-73
2022/04/27 11:56:58;;;;;;;6.62;4.15;;;17.10;45.80;;;;;;2628269;52;21031;-73
2022/04/27 11:59:25;;;;;;;7.15;3.87;;;17.00;45.30;;;;;;2374629;56;21030;-73
2022/04/27 12:01:53;;;;;;;10.48;4.75;;;17.00;45.40;;;;;;2374014;56;21409;-73
2022/04/27 12:04:20;;;;;;;8.93;4.68;;;17.00;45.40;;;;;;2373939;56;21043;-75
2022/04/27 12:06:48;;;;;;;8.70;4.55;;;17.00;45.20;;;;;;2373697;56;21533;-73
2022/04/27 12:09:18;;;;;;;8.60;4.50;;;16.90;44.50;;;;;;2374260;56;21106;-72
2022/04/27 12:11:46;;;;;;;8.18;3.85;;;16.90;44.70;;;;;;2373600;56;21054;-74
2022/04/27 12:14:16;;;;;;;10.00;4.78;;;17.00;45.10;;;;;;2627581;52;21126;-72
2022/04/27 12:16:43;;;;;;;5.15;3.33;;;17.10;44.10;;;;;;2373707;56;21055;-73
2022/04/27 12:19:13;;;;;;;7.28;3.55;;;17.20;43.70;;;;;;2627715;52;21600;-73
2022/04/27 12:21:42;;;;;;;4.40;3.62;;;17.30;43.80;;;;;;2373683;56;21130;-73
2022/04/27 12:24:19;;;;;;;4.15;3.20;;;17.50;44.00;;;;;;2374339;56;21382;-74
2022/04/27 12:26:46;;;;;;;4.65;3.03;;;17.60;44.20;;;;;;2373124;56;21058;-73
2022/04/27 12:29:14;;;;;;;6.05;3.60;;;17.80;45.60;;;;;;2627512;52;21047;-73
2022/04/27 12:31:42;;;;;;;4.87;3.25;;;17.90;44.70;;;;;;2627447;52;21050;-75
2022/04/27 12:39:42;;;;;;;6.72;3.15;;;18.40;42.80;;;;;;2373093;56;21070;-74
2022/04/27 12:42:12;;;;;;;6.47;3.67;;;18.50;41.70;;;;;;2626965;52;21059;-72
2022/04/27 12:44:40;;;;;;;6.72;3.30;;;18.70;41.70;;;;;;2373275;56;21051;-73
2022/04/27 12:47:09;;;;;;;3.83;3.00;;;18.80;41.50;;;;;;2373098;56;21118;-73
2022/04/27 12:49:38;;;;;;;8.77;3.35;;;18.80;41.80;;;;;;2372172;56;21031;-73
2022/04/27 12:52:16;;;;;;;4.55;3.12;;;18.90;41.90;;;;;;2373541;56;21027;-74
2022/04/27 12:54:44;;;;;;;5.32;3.60;;;18.90;41.40;;;;;;2372225;56;21389;-74
2022/04/27 12:57:12;;;;;;;7.60;3.37;;;18.90;40.90;;;;;;2372794;56;21114;-73
2022/04/27 12:59:55;;;;;;;5.57;3.40;;;18.90;40.10;;;;;;2370319;56;21137;-74
2022/04/27 13:02:23;;;;;;;6.43;3.97;;;18.90;40.60;;;;;;2372929;56;21026;-73
2022/04/27 13:04:52;;;;;;;6.43;3.67;;;18.90;40.10;;;;;;2373272;56;21046;-73
2022/04/27 13:07:19;;;;;;;4.97;3.40;;;18.90;39.80;;;;;;2370631;56;21659;-73
2022/04/27 13:12:33;;;;;;;5.53;3.50;;;18.60;39.80;;;;;;2373221;56;21513;-73
2022/04/27 13:15:02;;;;;;;5.68;3.92;;;18.60;39.40;;;;;;2373606;56;21134;-75
2022/04/27 13:17:29;;;;;;;6.57;4.37;;;18.60;40.00;;;;;;2373247;56;21075;-73
2022/04/27 13:19:57;;;;;;;4.87;3.42;;;18.60;39.50;;;;;;2371304;56;21027;-73
2022/04/27 13:22:24;;;;;;;7.85;4.22;;;18.60;40.70;;;;;;2372466;56;21094;-73
2022/04/27 13:24:52;;;;;;;7.05;3.90;;;18.50;40.00;;;;;;2370336;56;21110;-74
2022/04/27 13:27:21;;;;;;;6.85;3.65;;;18.50;40.30;;;;;;2368715;56;21047;-74
2022/04/27 13:29:49;;;;;;;6.50;3.83;;;18.50;39.50;;;;;;2625620;52;21094;-73
2022/04/27 13:32:17;;;;;;;6.43;3.30;;;18.60;39.10;;;;;;2372612;56;21039;-73
2022/04/27 13:34:44;;;;;;;5.97;3.53;;;18.60;40.00;;;;;;2373714;56;21126;-74
2022/04/27 13:37:12;;;;;;;8.25;3.17;;;18.70;40.00;;;;;;2372837;56;22186;-73
2022/04/27 13:39:39;;;;;;;5.62;3.35;;;18.70;39.90;;;;;;2372898;56;21031;-73
2022/04/27 13:42:06;;;;;;;6.93;3.45;;;18.80;39.10;;;;;;2372852;56;21581;-75